createdAt,value
2023-01-26T00:01:13.143Z,9.51
2023-01-26T00:03:40.457Z,9.45
2023-01-26T00:06:08.525Z,9.47
2023-01-26T00:08:38.362Z,9.51
2023-01-26T00:11:05.955Z,9.58
2023-01-26T00:13:35.452Z,9.67
2023-01-26T00:16:02.943Z,9.55
2023-01-26T00:18:30.610Z,9.45
2023-01-26T00:20:57.662Z,9.30
2023-01-26T00:23:24.454Z,9.23
2023-01-26T00:25:52.670Z,9.15
2023-01-26T00:28:19.431Z,9.15
2023-01-26T00:30:46.176Z,9.25
2023-01-26T00:33:13.100Z,9.32
2023-01-26T00:35:39.831Z,9.37
2023-01-26T00:38:09.484Z,9.35
2023-01-26T00:40:36.137Z,9.26
2023-01-26T00:43:04.375Z,9.25
2023-01-26T00:45:31.206Z,9.13
2023-01-26T00:47:57.910Z,9.01
2023-01-26T00:50:24.574Z,8.98
2023-01-26T00:52:51.286Z,8.98
2023-01-26T00:55:18.100Z,9.05
2023-01-26T00:57:44.757Z,9.11
2023-01-26T01:00:13.879Z,9.16
2023-01-26T01:02:40.571Z,9.19
2023-01-26T01:05:07.963Z,9.18
2023-01-26T01:07:34.782Z,9.20
2023-01-26T01:10:01.727Z,9.19
2023-01-26T01:12:28.488Z,9.18
2023-01-26T01:14:55.288Z,9.14
2023-01-26T01:17:23.361Z,8.96
2023-01-26T01:19:52.991Z,8.86
2023-01-26T01:22:19.711Z,8.87
2023-01-26T01:24:46.468Z,8.91
2023-01-26T01:27:13.211Z,8.75
2023-01-26T01:29:39.912Z,8.73
2023-01-26T01:32:06.660Z,8.72
2023-01-26T01:34:34.865Z,8.70
2023-01-26T01:37:01.616Z,8.79
2023-01-26T01:39:28.359Z,8.85
2023-01-26T01:41:55.040Z,8.77
2023-01-26T01:44:23.498Z,8.74
2023-01-26T01:46:55.147Z,8.72
2023-01-26T01:49:28.120Z,8.64
2023-01-26T01:51:59.621Z,8.67
2023-01-26T01:54:32.358Z,8.73
2023-01-26T01:57:03.589Z,8.70
2023-01-26T01:59:32.548Z,8.67
2023-01-26T02:01:59.420Z,8.65
2023-01-26T02:04:26.867Z,8.73
2023-01-26T02:06:58.934Z,8.72
2023-01-26T02:09:30.702Z,8.58
2023-01-26T02:11:59.143Z,8.49
2023-01-26T02:14:28.736Z,8.43
2023-01-26T02:16:55.552Z,8.48
2023-01-26T02:19:32.073Z,8.54
2023-01-26T02:22:11.470Z,8.65
2023-01-26T02:24:40.414Z,8.65
2023-01-26T02:27:08.720Z,8.67
2023-01-26T02:29:35.578Z,8.69
2023-01-26T02:32:02.320Z,8.65
2023-01-26T02:34:29.041Z,8.75
2023-01-26T02:37:00.120Z,8.72
2023-01-26T02:39:41.915Z,8.70
2023-01-26T02:42:10.269Z,8.68
2023-01-26T02:44:37.674Z,8.53
2023-01-26T02:47:11.701Z,8.41
2023-01-26T02:49:38.421Z,8.34
2023-01-26T02:52:06.105Z,8.36
2023-01-26T02:54:33.081Z,8.48
2023-01-26T02:56:59.948Z,8.57
2023-01-26T02:59:28.015Z,8.59
2023-01-26T03:01:57.104Z,8.59
2023-01-26T03:04:24.128Z,8.51
2023-01-26T03:06:50.868Z,8.49
2023-01-26T03:09:17.587Z,8.43
2023-01-26T03:11:44.495Z,8.36
2023-01-26T03:14:11.845Z,8.38
2023-01-26T03:16:40.764Z,8.49
2023-01-26T03:19:09.603Z,8.56
2023-01-26T03:21:36.529Z,8.60
2023-01-26T03:24:04.108Z,8.48
2023-01-26T03:26:30.923Z,8.44
2023-01-26T03:28:57.635Z,8.38
2023-01-26T03:31:24.424Z,8.40
2023-01-26T03:33:52.595Z,8.34
2023-01-26T03:36:19.395Z,8.27
2023-01-26T03:38:46.106Z,8.28
2023-01-26T03:41:12.916Z,8.39
2023-01-26T03:43:39.640Z,8.61
2023-01-26T03:46:08.128Z,8.63
2023-01-26T03:48:34.827Z,8.48
2023-01-26T03:51:03.036Z,8.39
2023-01-26T03:53:29.791Z,8.38
2023-01-26T03:55:58.829Z,8.32
2023-01-26T03:58:25.553Z,8.39
2023-01-26T04:00:52.428Z,8.43
2023-01-26T04:03:21.875Z,8.45
2023-01-26T04:05:48.597Z,8.44
2023-01-26T04:08:16.767Z,8.52
2023-01-26T04:10:43.483Z,8.52
2023-01-26T04:13:10.250Z,8.50
2023-01-26T04:15:37.606Z,8.63
2023-01-26T04:18:06.846Z,8.74
2023-01-26T04:20:33.549Z,8.83
2023-01-26T04:23:00.255Z,8.83
2023-01-26T04:25:28.380Z,8.93
2023-01-26T04:27:55.139Z,9.00
2023-01-26T04:30:22.155Z,8.98
2023-01-26T04:32:51.392Z,9.07
2023-01-26T04:35:18.261Z,9.08
2023-01-26T04:37:45.017Z,8.92
2023-01-26T04:40:12.901Z,8.80
2023-01-26T04:42:41.167Z,8.83
2023-01-26T04:45:10.496Z,8.83
2023-01-26T04:47:37.210Z,8.86
2023-01-26T04:50:04.427Z,8.95
2023-01-26T04:52:31.159Z,9.07
2023-01-26T04:54:57.833Z,9.11
2023-01-26T04:57:24.549Z,9.03
2023-01-26T04:59:52.832Z,9.01
2023-01-26T05:02:19.516Z,8.98
2023-01-26T05:04:46.176Z,8.91
2023-01-26T05:07:12.885Z,9.01
2023-01-26T05:09:39.599Z,9.21
2023-01-26T05:12:06.729Z,9.30
2023-01-26T05:14:33.422Z,9.26
2023-01-26T05:17:01.997Z,9.22
2023-01-26T05:19:28.763Z,9.24
2023-01-26T05:21:55.509Z,9.46
2023-01-26T05:24:22.372Z,9.68
2023-01-26T05:26:49.270Z,9.78
2023-01-26T05:29:16.213Z,9.81
2023-01-26T05:31:42.942Z,9.81
2023-01-26T05:34:11.107Z,9.82
2023-01-26T05:36:37.945Z,9.85
2023-01-26T05:39:04.660Z,9.96
2023-01-26T05:41:31.376Z,10.01
2023-01-26T05:43:58.096Z,9.94
2023-01-26T05:46:24.782Z,9.96
2023-01-26T05:48:51.456Z,10.00
2023-01-26T05:51:19.593Z,10.07
2023-01-26T05:53:46.305Z,10.12
2023-01-26T05:56:13.008Z,10.11
2023-01-26T05:58:39.780Z,10.19
2023-01-26T06:01:06.625Z,10.26
2023-01-26T06:03:33.360Z,10.26
2023-01-26T06:06:00.105Z,10.12
2023-01-26T06:08:28.196Z,10.20
2023-01-26T06:10:59.318Z,10.20
2023-01-26T06:13:26.071Z,10.26
2023-01-26T06:15:52.823Z,10.18
2023-01-26T06:18:19.583Z,10.10
2023-01-26T06:20:46.435Z,10.16
2023-01-26T06:23:13.173Z,10.24
2023-01-26T06:25:41.307Z,10.17
2023-01-26T06:28:08.216Z,10.19
2023-01-26T06:30:35.019Z,10.14
2023-01-26T06:33:01.782Z,10.29
2023-01-26T06:35:28.548Z,10.24
2023-01-26T06:37:55.276Z,10.23
2023-01-26T06:40:21.995Z,10.42
2023-01-26T06:42:50.949Z,10.46
2023-01-26T06:45:17.979Z,10.44
2023-01-26T06:47:45.500Z,10.48
2023-01-26T06:50:12.579Z,10.47
2023-01-26T06:52:42.340Z,10.39
2023-01-26T06:55:16.868Z,10.36
2023-01-26T06:57:43.605Z,10.37
2023-01-26T07:00:13.430Z,10.34
2023-01-26T07:02:40.937Z,10.39
2023-01-26T07:05:07.901Z,10.44
2023-01-26T07:07:34.603Z,10.52
2023-01-26T07:10:01.422Z,10.54
2023-01-26T07:12:38.318Z,10.57
2023-01-26T07:15:05.880Z,10.57
2023-01-26T07:17:34.041Z,10.54
2023-01-26T07:20:00.753Z,10.53
2023-01-26T07:22:27.481Z,10.36
2023-01-26T07:24:54.204Z,10.26
2023-01-26T07:27:22.001Z,10.32
2023-01-26T07:29:48.787Z,10.34
2023-01-26T07:32:15.777Z,10.31
2023-01-26T07:34:43.916Z,10.30
2023-01-26T07:37:10.641Z,10.15
2023-01-26T07:39:37.341Z,10.24
2023-01-26T07:42:04.235Z,10.31
2023-01-26T07:44:30.939Z,10.34
2023-01-26T07:46:58.073Z,10.37
2023-01-26T07:49:24.809Z,10.40
2023-01-26T07:51:52.949Z,10.41
2023-01-26T07:54:19.914Z,10.43
2023-01-26T07:56:46.695Z,10.47
2023-01-26T07:59:13.424Z,10.43
2023-01-26T08:01:40.274Z,10.50
2023-01-26T08:04:07.323Z,10.55
2023-01-26T08:06:34.101Z,10.71
2023-01-26T08:09:02.192Z,10.81
2023-01-26T08:11:30.028Z,10.80
2023-01-26T08:13:56.881Z,10.79
2023-01-26T08:16:23.731Z,10.85
2023-01-26T08:18:50.521Z,10.88
2023-01-26T08:21:18.472Z,10.89
2023-01-26T08:23:49.293Z,10.95
2023-01-26T08:26:19.925Z,10.98
2023-01-26T08:28:47.516Z,11.00
2023-01-26T08:31:16.306Z,11.10
2023-01-26T08:33:43.565Z,11.26
2023-01-26T08:36:12.605Z,11.25
2023-01-26T08:38:39.376Z,11.25
2023-01-26T08:41:06.238Z,11.30
2023-01-26T08:43:34.841Z,11.34
2023-01-26T08:46:01.661Z,11.38
2023-01-26T08:48:28.755Z,11.46
2023-01-26T08:50:56.693Z,11.43
2023-01-26T08:53:24.108Z,11.52
2023-01-26T08:55:51.223Z,11.63
2023-01-26T08:58:18.017Z,11.63
2023-01-26T09:00:46.463Z,11.67
2023-01-26T09:03:13.406Z,11.65
2023-01-26T09:05:40.936Z,11.56
2023-01-26T09:08:09.382Z,11.50
2023-01-26T09:10:37.322Z,11.66
2023-01-26T09:13:04.033Z,11.79
2023-01-26T09:15:30.754Z,11.89
2023-01-26T09:18:00.870Z,12.05
2023-01-26T09:20:28.976Z,12.20
2023-01-26T09:22:55.752Z,12.31
2023-01-26T09:25:24.457Z,12.28
2023-01-26T09:27:51.191Z,12.19
2023-01-26T09:30:18.055Z,12.03
2023-01-26T09:32:44.843Z,11.99
2023-01-26T09:35:14.850Z,12.21
2023-01-26T09:37:43.774Z,12.61
2023-01-26T09:40:16.193Z,12.92
2023-01-26T09:42:54.623Z,13.22
2023-01-26T09:45:27.193Z,13.59
2023-01-26T09:48:12.275Z,14.09
2023-01-26T09:50:46.270Z,14.50
2023-01-26T09:53:19.064Z,14.73
2023-01-26T09:55:46.333Z,14.69
2023-01-26T09:58:15.737Z,14.51
2023-01-26T10:00:47.611Z,14.24
2023-01-26T10:03:23.506Z,14.07
2023-01-26T10:05:58.658Z,14.07
2023-01-26T10:08:25.815Z,14.06
2023-01-26T10:10:54.444Z,14.12
2023-01-26T10:13:22.768Z,14.34
2023-01-26T10:15:54.354Z,14.91
2023-01-26T10:18:27.665Z,15.34
2023-01-26T10:20:58.517Z,15.30
2023-01-26T10:23:28.681Z,15.01
2023-01-26T10:26:01.896Z,14.87
2023-01-26T10:28:32.835Z,14.95
2023-01-26T10:31:00.341Z,14.92
2023-01-26T10:33:31.846Z,14.51
2023-01-26T10:36:00.200Z,14.26
2023-01-26T10:38:40.885Z,14.20
2023-01-26T10:41:26.242Z,14.23
2023-01-26T10:43:55.163Z,14.17
2023-01-26T10:46:30.591Z,14.27
2023-01-26T10:48:59.505Z,14.52
2023-01-26T10:51:30.737Z,14.64
2023-01-26T10:54:20.951Z,14.57
2023-01-26T10:56:51.067Z,14.73
2023-01-26T10:59:27.560Z,14.79
2023-01-26T11:01:57.062Z,14.82
2023-01-26T11:04:25.092Z,14.95
2023-01-26T11:06:53.379Z,15.41
2023-01-26T11:09:24.371Z,15.87
2023-01-26T11:12:02.765Z,16.00
2023-01-26T11:14:30.634Z,16.10
2023-01-26T11:17:11.298Z,16.10
2023-01-26T11:19:55.157Z,15.97
2023-01-26T11:22:33.662Z,15.93
2023-01-26T11:25:15.011Z,15.84
2023-01-26T11:27:52.740Z,15.89
2023-01-26T11:30:43.865Z,15.86
2023-01-26T11:33:23.439Z,15.50
2023-01-26T11:35:57.359Z,15.41
2023-01-26T11:38:39.960Z,15.59
2023-01-26T11:41:27.971Z,15.74
2023-01-26T11:44:10.326Z,15.88
2023-01-26T11:46:57.071Z,16.02
2023-01-26T11:49:39.904Z,15.91
2023-01-26T11:52:19.248Z,16.01
2023-01-26T11:55:23.435Z,16.22
2023-01-26T11:58:05.561Z,16.35
2023-01-26T12:00:40.447Z,16.66
2023-01-26T12:03:22.031Z,16.99
2023-01-26T12:05:52.491Z,17.32
2023-01-26T12:08:25.439Z,17.81
2023-01-26T12:11:02.208Z,17.82
2023-01-26T12:13:38.928Z,18.15
2023-01-26T12:16:15.885Z,18.69
2023-01-26T12:19:10.035Z,18.89
2023-01-26T12:21:40.153Z,19.23
2023-01-26T12:24:39.274Z,19.11
2023-01-26T12:27:08.481Z,18.42
2023-01-26T12:29:44.605Z,18.52
2023-01-26T12:32:14.531Z,18.37
2023-01-26T12:34:41.376Z,18.24
2023-01-26T12:37:28.362Z,17.76
2023-01-26T12:40:01.105Z,17.70
2023-01-26T12:42:42.041Z,17.87
2023-01-26T12:45:17.553Z,17.85
2023-01-26T12:47:52.148Z,17.93
2023-01-26T12:50:27.671Z,17.63
2023-01-26T12:53:01.561Z,18.17
2023-01-26T12:55:32.563Z,19.61
2023-01-26T12:58:04.516Z,20.50
2023-01-26T13:00:34.247Z,21.26
2023-01-26T13:05:31.920Z,20.43
2023-01-26T13:07:59.228Z,20.40
2023-01-26T13:10:43.463Z,19.43
2023-01-26T13:13:31.119Z,18.55
2023-01-26T13:16:31.757Z,18.39
2023-01-26T13:18:59.743Z,18.26
2023-01-26T13:21:27.250Z,18.73
2023-01-26T13:23:54.588Z,19.14
2023-01-26T13:26:41.975Z,19.49
2023-01-26T13:29:29.300Z,19.17
2023-01-26T13:31:57.512Z,18.01
2023-01-26T13:34:28.338Z,17.94
2023-01-26T13:37:00.839Z,17.40
2023-01-26T13:39:34.976Z,17.31
2023-01-26T13:42:03.795Z,17.09
2023-01-26T13:44:38.734Z,17.05
2023-01-26T13:47:12.174Z,17.08
2023-01-26T13:49:40.756Z,16.87
2023-01-26T13:52:18.834Z,16.93
2023-01-26T13:54:46.583Z,17.14
2023-01-26T13:57:20.970Z,17.00
2023-01-26T13:59:53.964Z,17.34
2023-01-26T14:02:26.376Z,17.28
2023-01-26T14:04:54.050Z,17.47
2023-01-26T14:07:24.577Z,17.56
2023-01-26T14:09:56.008Z,17.50
2023-01-26T14:12:25.231Z,17.44
2023-01-26T14:14:55.933Z,17.37
2023-01-26T14:17:27.956Z,17.37
2023-01-26T14:19:55.431Z,17.28
2023-01-26T14:22:22.672Z,17.23
2023-01-26T14:24:50.864Z,17.16
2023-01-26T14:27:39.780Z,17.06
2023-01-26T14:33:06.551Z,16.87
2023-01-26T14:35:34.233Z,16.81
2023-01-26T14:38:15.362Z,16.78
2023-01-26T14:40:46.252Z,16.77
2023-01-26T14:43:15.201Z,16.76
2023-01-26T14:45:48.435Z,16.76
2023-01-26T14:48:21.811Z,16.71
2023-01-26T14:50:50.045Z,16.71
2023-01-26T14:53:20.719Z,16.59
2023-01-26T14:55:49.408Z,16.54
2023-01-26T14:58:22.022Z,16.51
2023-01-26T15:00:51.246Z,16.55
2023-01-26T15:03:26.317Z,16.64
2023-01-26T15:06:19.754Z,16.61
2023-01-26T15:08:56.811Z,16.59
2023-01-26T15:11:33.481Z,16.59
2023-01-26T15:14:01.125Z,16.60
2023-01-26T15:16:28.868Z,16.63
2023-01-26T15:19:02.802Z,16.64
2023-01-26T15:21:33.912Z,16.60
2023-01-26T15:24:01.254Z,16.62
2023-01-26T15:26:31.578Z,16.63
2023-01-26T15:29:00.865Z,16.64
2023-01-26T15:31:32.892Z,16.64
2023-01-26T15:34:06.822Z,16.68
2023-01-26T15:36:47.410Z,16.71
2023-01-26T15:39:17.006Z,16.65
2023-01-26T15:41:46.384Z,16.62
2023-01-26T15:44:18.762Z,16.60
2023-01-26T15:46:46.700Z,16.55
2023-01-26T15:49:16.313Z,16.52
2023-01-26T15:51:43.299Z,16.49
2023-01-26T15:54:11.379Z,16.46
2023-01-26T15:56:38.548Z,16.40
2023-01-26T15:59:05.311Z,16.29
2023-01-26T16:01:32.329Z,16.21
2023-01-26T16:03:59.089Z,16.11
2023-01-26T16:06:29.830Z,15.98
2023-01-26T16:08:57.166Z,16.01
2023-01-26T16:11:29.524Z,15.98
2023-01-26T16:14:03.386Z,15.96
2023-01-26T16:16:31.757Z,15.91
2023-01-26T16:18:58.635Z,15.92
2023-01-26T16:21:29.053Z,15.87
2023-01-26T16:23:56.244Z,15.84
2023-01-26T16:26:23.088Z,15.86
2023-01-26T16:28:49.897Z,15.81
2023-01-26T16:31:19.278Z,15.77
2023-01-26T16:33:47.323Z,15.77
2023-01-26T16:36:15.732Z,15.73
2023-01-26T16:38:44.318Z,15.71
2023-01-26T16:41:15.430Z,15.70
2023-01-26T16:43:43.360Z,15.67
2023-01-26T16:46:11.283Z,15.65
2023-01-26T16:48:39.983Z,15.63
2023-01-26T16:51:19.182Z,15.66
2023-01-26T16:53:48.266Z,15.64
2023-01-26T16:56:16.995Z,15.64
2023-01-26T16:58:44.159Z,15.63
2023-01-26T17:01:18.001Z,15.60
2023-01-26T17:03:45.079Z,15.57
2023-01-26T17:06:12.144Z,15.57
2023-01-26T17:08:40.827Z,15.58
2023-01-26T17:11:16.719Z,15.54
2023-01-26T17:13:43.781Z,15.56
2023-01-26T17:16:14.948Z,15.50
2023-01-26T17:18:42.204Z,15.46
2023-01-26T17:21:09.181Z,15.52
2023-01-26T17:23:35.969Z,15.43
2023-01-26T17:26:03.011Z,15.40
2023-01-26T17:28:31.334Z,15.36
2023-01-26T17:31:01.042Z,15.43
2023-01-26T17:33:28.943Z,15.35
2023-01-26T17:35:59.783Z,15.37
2023-01-26T17:38:26.663Z,15.29
2023-01-26T17:40:55.748Z,15.39
2023-01-26T17:43:22.558Z,15.41
2023-01-26T17:45:51.312Z,15.41
2023-01-26T17:48:18.152Z,15.36
2023-01-26T17:50:47.783Z,15.22
2023-01-26T17:53:14.741Z,15.33
2023-01-26T17:55:41.644Z,15.37
2023-01-26T17:58:08.472Z,15.39
2023-01-26T18:00:35.237Z,15.36
2023-01-26T18:03:04.228Z,15.33
2023-01-26T18:05:31.335Z,15.33
2023-01-26T18:07:58.231Z,15.29
2023-01-26T18:10:25.146Z,15.21
2023-01-26T18:12:51.925Z,15.21
2023-01-26T18:15:18.784Z,15.23
2023-01-26T18:17:45.705Z,15.10
2023-01-26T18:20:14.528Z,15.16
2023-01-26T18:22:41.412Z,15.19
2023-01-26T18:25:09.322Z,15.21
2023-01-26T18:27:36.200Z,15.19
2023-01-26T18:30:03.357Z,15.15
2023-01-26T18:32:30.131Z,15.13
2023-01-26T18:34:57.040Z,15.11
2023-01-26T18:37:25.459Z,15.11
2023-01-26T18:39:52.349Z,15.08
2023-01-26T18:42:19.233Z,15.09
2023-01-26T18:44:46.112Z,15.06
2023-01-26T18:47:13.071Z,15.07
2023-01-26T18:49:39.892Z,15.07
2023-01-26T18:52:06.889Z,15.06
2023-01-26T18:54:35.321Z,15.01
2023-01-26T18:57:02.180Z,14.96
2023-01-26T18:59:28.978Z,14.92
2023-01-26T19:01:55.880Z,14.94
2023-01-26T19:04:22.590Z,14.93
2023-01-26T19:06:49.613Z,14.91
2023-01-26T19:09:16.765Z,14.84
2023-01-26T19:11:45.325Z,14.72
2023-01-26T19:14:12.346Z,14.69
2023-01-26T19:16:39.336Z,14.65
2023-01-26T19:19:06.300Z,14.76
2023-01-26T19:21:33.966Z,14.79
2023-01-26T19:24:01.314Z,14.83
2023-01-26T19:26:28.889Z,14.86
2023-01-26T19:28:58.113Z,14.84
2023-01-26T19:31:26.305Z,14.78
2023-01-26T19:33:53.995Z,14.79
2023-01-26T19:36:21.430Z,14.80
2023-01-26T19:38:48.572Z,14.76
2023-01-26T19:41:15.897Z,14.74
2023-01-26T19:43:42.996Z,14.72
2023-01-26T19:46:12.293Z,14.72
2023-01-26T19:48:39.665Z,14.69
2023-01-26T19:51:12.949Z,14.73
2023-01-26T19:53:42.175Z,14.70
2023-01-26T19:56:10.759Z,14.72
2023-01-26T19:58:38.133Z,14.67
2023-01-26T20:01:07.305Z,14.66
2023-01-26T20:03:36.030Z,14.62
2023-01-26T20:06:04.653Z,14.65
2023-01-26T20:08:31.916Z,14.57
2023-01-26T20:11:05.042Z,14.57
2023-01-26T20:13:32.160Z,14.55
2023-01-26T20:15:59.045Z,14.50
2023-01-26T20:18:26.056Z,14.51
2023-01-26T20:20:55.963Z,14.50
2023-01-26T20:23:22.918Z,14.46
2023-01-26T20:25:51.894Z,14.33
2023-01-26T20:28:19.547Z,14.36
2023-01-26T20:30:46.530Z,14.30
2023-01-26T20:33:13.423Z,14.32
2023-01-26T20:35:40.714Z,14.28
2023-01-26T20:38:09.058Z,14.28
2023-01-26T20:40:37.503Z,14.30
2023-01-26T20:43:04.523Z,14.25
2023-01-26T20:45:31.348Z,14.18
2023-01-26T20:47:58.301Z,14.17
2023-01-26T20:50:25.079Z,14.21
2023-01-26T20:52:51.956Z,14.10
2023-01-26T20:55:20.828Z,14.04
2023-01-26T20:57:47.635Z,13.98
2023-01-26T21:00:15.405Z,13.95
2023-01-26T21:02:42.383Z,13.95
2023-01-26T21:05:09.521Z,13.93
2023-01-26T21:07:36.443Z,13.98
2023-01-26T21:10:03.456Z,13.95
2023-01-26T21:12:31.791Z,14.04
2023-01-26T21:14:58.561Z,14.06
2023-01-26T21:17:25.359Z,14.04
2023-01-26T21:19:52.134Z,14.04
2023-01-26T21:22:18.892Z,14.02
2023-01-26T21:24:45.795Z,14.01
2023-01-26T21:27:12.665Z,14.02
2023-01-26T21:29:41.097Z,13.97
2023-01-26T21:32:08.556Z,13.88
2023-01-26T21:34:35.557Z,13.76
2023-01-26T21:37:02.447Z,13.67
2023-01-26T21:39:29.622Z,13.62
2023-01-26T21:41:56.373Z,13.46
2023-01-26T21:44:25.083Z,13.54
2023-01-26T21:46:55.208Z,13.45
2023-01-26T21:49:23.444Z,13.27
2023-01-26T21:51:51.190Z,13.24
2023-01-26T21:54:17.991Z,13.18
2023-01-26T21:56:45.160Z,13.18
2023-01-26T21:59:14.372Z,13.24
2023-01-26T22:01:45.043Z,13.31
2023-01-26T22:04:15.790Z,13.38
2023-01-26T22:06:42.783Z,13.33
2023-01-26T22:09:11.609Z,13.40
2023-01-26T22:11:38.440Z,13.42
2023-01-26T22:14:05.627Z,13.34
2023-01-26T22:16:32.944Z,13.29
2023-01-26T22:19:00.290Z,13.53
2023-01-26T22:21:28.436Z,13.62
2023-01-26T22:23:55.299Z,13.64
2023-01-26T22:26:23.298Z,13.61
2023-01-26T22:28:51.073Z,13.65
2023-01-26T22:31:20.603Z,13.64
2023-01-26T22:33:47.785Z,13.63
2023-01-26T22:36:14.883Z,13.64
2023-01-26T22:38:43.961Z,13.58
2023-01-26T22:41:14.523Z,13.61
2023-01-26T22:43:41.379Z,13.73
2023-01-26T22:46:10.190Z,13.62
2023-01-26T22:48:37.464Z,13.53
2023-01-26T22:51:08.227Z,13.65
2023-01-26T22:53:35.215Z,13.68
2023-01-26T22:56:03.838Z,13.68
2023-01-26T22:58:33.260Z,13.71
2023-01-26T23:01:08.884Z,13.72
2023-01-26T23:03:37.432Z,13.72
2023-01-26T23:06:06.750Z,13.64
2023-01-26T23:08:33.985Z,13.63
2023-01-26T23:11:07.200Z,13.55
2023-01-26T23:13:34.496Z,13.52
2023-01-26T23:16:01.631Z,13.51
2023-01-26T23:18:28.645Z,13.51
2023-01-26T23:20:55.916Z,13.47
2023-01-26T23:23:22.802Z,13.51
2023-01-26T23:25:50.189Z,13.50
2023-01-26T23:28:19.550Z,13.46
2023-01-26T23:30:46.753Z,13.45
2023-01-26T23:33:13.832Z,13.45
2023-01-26T23:35:40.958Z,13.46
2023-01-26T23:38:08.219Z,13.48
2023-01-26T23:40:35.672Z,13.54
2023-01-26T23:43:15.698Z,13.55
2023-01-26T23:45:45.950Z,13.58
2023-01-26T23:48:13.403Z,13.58
2023-01-26T23:50:40.271Z,13.53
2023-01-26T23:53:07.568Z,13.42
2023-01-26T23:55:34.712Z,13.28
2023-01-26T23:58:01.438Z,13.19
